createdAt,value
2018-05-04T00:00:38.097Z,14.42
2018-05-04T00:03:04.785Z,14.61
2018-05-04T00:05:31.490Z,14.64
2018-05-04T00:07:58.142Z,14.34
2018-05-04T00:10:28.458Z,14.55
2018-05-04T00:12:55.157Z,14.59
2018-05-04T00:15:21.711Z,14.77
2018-05-04T00:17:48.386Z,14.95
2018-05-04T00:20:19.004Z,14.97
2018-05-04T00:22:45.819Z,14.85
2018-05-04T00:25:12.445Z,14.71
2018-05-04T00:27:39.074Z,14.90
2018-05-04T00:30:12.256Z,14.60
2018-05-04T00:32:38.946Z,14.62
2018-05-04T00:35:05.710Z,15.05
2018-05-04T00:37:32.514Z,14.80
2018-05-04T00:40:00.612Z,14.44
2018-05-04T00:42:27.250Z,14.46
2018-05-04T00:44:54.252Z,14.46
2018-05-04T00:47:20.872Z,14.49
2018-05-04T00:49:47.768Z,14.29
2018-05-04T00:52:14.840Z,14.29
2018-05-04T00:54:41.524Z,14.19
2018-05-04T00:57:08.144Z,14.38
2018-05-04T00:59:34.859Z,14.47
2018-05-04T01:02:01.344Z,14.42
2018-05-04T01:04:28.026Z,14.42
2018-05-04T01:06:54.759Z,14.08
2018-05-04T01:09:24.660Z,14.00
2018-05-04T01:11:51.187Z,13.73
2018-05-04T01:14:18.187Z,13.69
2018-05-04T01:16:44.942Z,13.64
2018-05-04T01:19:13.039Z,13.69
2018-05-04T01:21:39.685Z,13.51
2018-05-04T01:24:06.268Z,13.56
2018-05-04T01:26:32.950Z,13.83
2018-05-04T01:29:02.859Z,13.83
2018-05-04T01:31:29.571Z,13.81
2018-05-04T01:33:56.334Z,13.54
2018-05-04T01:36:22.960Z,13.26
2018-05-04T01:38:50.887Z,13.40
2018-05-04T01:41:17.845Z,13.60
2018-05-04T01:43:44.538Z,13.41
2018-05-04T01:46:11.479Z,12.85
2018-05-04T01:48:43.402Z,13.09
2018-05-04T01:51:09.988Z,13.46
2018-05-04T01:53:36.622Z,13.43
2018-05-04T01:56:03.206Z,13.56
2018-05-04T01:58:40.388Z,13.55
2018-05-04T02:01:06.998Z,13.13
2018-05-04T02:03:33.649Z,13.32
2018-05-04T02:06:00.261Z,13.04
2018-05-04T02:08:27.952Z,12.99
2018-05-04T02:10:54.581Z,13.19
2018-05-04T02:13:21.226Z,13.57
2018-05-04T02:15:47.798Z,13.79
2018-05-04T02:18:14.505Z,13.98
2018-05-04T02:20:41.457Z,13.66
2018-05-04T02:23:08.093Z,13.74
2018-05-04T02:25:34.682Z,13.67
2018-05-04T02:28:01.352Z,13.85
2018-05-04T02:30:31.359Z,13.53
2018-05-04T02:32:57.948Z,13.96
2018-05-04T02:35:24.529Z,13.88
2018-05-04T02:37:51.230Z,13.72
2018-05-04T02:40:21.643Z,13.70
2018-05-04T02:42:48.233Z,13.90
2018-05-04T02:45:14.789Z,14.05
2018-05-04T02:47:41.750Z,13.95
2018-05-04T02:50:11.964Z,14.30
2018-05-04T02:52:38.982Z,13.97
2018-05-04T02:55:06.233Z,14.41
2018-05-04T02:57:32.977Z,14.10
2018-05-04T02:59:59.849Z,13.81
2018-05-04T03:02:26.670Z,14.05
2018-05-04T03:04:53.705Z,14.40
2018-05-04T03:07:20.661Z,14.40
2018-05-04T03:09:52.594Z,14.07
2018-05-04T03:12:19.325Z,13.83
2018-05-04T03:14:46.029Z,13.95
2018-05-04T03:17:12.517Z,14.23
2018-05-04T03:19:44.931Z,14.17
2018-05-04T03:22:11.433Z,14.39
2018-05-04T03:24:37.996Z,14.51
2018-05-04T03:27:04.913Z,14.14
2018-05-04T03:29:39.221Z,14.49
2018-05-04T03:32:05.949Z,14.61
2018-05-04T03:34:32.461Z,14.24
2018-05-04T03:36:59.037Z,13.34
2018-05-04T03:39:30.010Z,13.58
2018-05-04T03:41:56.649Z,14.06
2018-05-04T03:44:24.278Z,14.23
2018-05-04T03:46:51.374Z,14.00
2018-05-04T03:49:21.729Z,14.25
2018-05-04T03:51:48.317Z,14.26
2018-05-04T03:54:15.010Z,14.35
2018-05-04T03:56:41.708Z,14.61
2018-05-04T03:59:21.147Z,14.41
2018-05-04T04:01:59.806Z,14.52
2018-05-04T04:04:26.472Z,14.40
2018-05-04T04:06:53.205Z,14.72
2018-05-04T04:09:20.070Z,14.43
2018-05-04T04:11:46.633Z,14.61
2018-05-04T04:14:13.287Z,14.70
2018-05-04T04:16:39.974Z,14.13
2018-05-04T04:19:11.089Z,14.10
2018-05-04T04:21:37.650Z,14.58
2018-05-04T04:24:04.302Z,14.06
2018-05-04T04:26:30.877Z,14.22
2018-05-04T04:28:59.717Z,14.42
2018-05-04T04:31:26.410Z,14.17
2018-05-04T04:33:53.182Z,14.17
2018-05-04T04:36:19.780Z,14.61
2018-05-04T04:38:47.549Z,14.44
2018-05-04T04:41:14.249Z,14.77
2018-05-04T04:43:40.833Z,14.70
2018-05-04T04:46:07.454Z,14.82
2018-05-04T04:48:35.115Z,14.71
2018-05-04T04:51:01.853Z,14.66
2018-05-04T04:53:28.610Z,14.79
2018-05-04T04:55:55.301Z,15.18
2018-05-04T04:58:24.953Z,15.40
2018-05-04T05:00:51.530Z,15.67
2018-05-04T05:03:18.189Z,15.20
2018-05-04T05:05:44.779Z,15.65
2018-05-04T05:08:12.621Z,15.62
2018-05-04T05:10:39.176Z,15.63
2018-05-04T05:13:05.737Z,15.74
2018-05-04T05:15:32.469Z,15.89
2018-05-04T05:17:59.095Z,15.75
2018-05-04T05:20:26.146Z,15.24
2018-05-04T05:22:52.790Z,15.54
2018-05-04T05:25:19.371Z,15.49
2018-05-04T05:27:46.040Z,15.54
2018-05-04T05:30:18.525Z,15.36
2018-05-04T05:32:45.085Z,15.37
2018-05-04T05:35:11.902Z,15.12
2018-05-04T05:37:38.859Z,15.52
2018-05-04T05:40:05.525Z,15.19
2018-05-04T05:42:32.486Z,15.48
2018-05-04T05:44:59.258Z,15.25
2018-05-04T05:47:26.001Z,14.96
2018-05-04T05:49:55.862Z,15.83
2018-05-04T05:52:23.261Z,15.95
2018-05-04T05:54:50.286Z,16.32
2018-05-04T05:57:16.982Z,15.93
2018-05-04T05:59:46.994Z,16.44
2018-05-04T06:02:13.670Z,16.62
2018-05-04T06:04:40.645Z,15.77
2018-05-04T06:07:07.213Z,16.48
2018-05-04T06:09:39.324Z,16.85
2018-05-04T06:12:05.996Z,16.81
2018-05-04T06:14:32.637Z,17.25
2018-05-04T06:16:59.312Z,17.31
2018-05-04T06:19:32.221Z,17.35
2018-05-04T06:21:58.965Z,17.73
2018-05-04T06:24:25.632Z,17.42
2018-05-04T06:26:52.366Z,17.03
2018-05-04T06:29:20.316Z,16.76
2018-05-04T06:31:47.015Z,17.17
2018-05-04T06:34:13.714Z,16.94
2018-05-04T06:36:40.373Z,16.98
2018-05-04T06:39:13.954Z,17.09
2018-05-04T06:41:40.590Z,17.57
2018-05-04T06:44:07.282Z,17.80
2018-05-04T06:46:34.061Z,18.08
2018-05-04T06:49:04.391Z,17.63
2018-05-04T06:51:31.053Z,18.08
2018-05-04T06:53:57.677Z,18.21
2018-05-04T06:56:24.335Z,17.76
2018-05-04T06:59:03.643Z,18.59
2018-05-04T07:01:30.390Z,17.89
2018-05-04T07:03:57.055Z,17.87
2018-05-04T07:06:23.604Z,18.06
2018-05-04T07:08:53.884Z,17.87
2018-05-04T07:11:20.941Z,18.77
2018-05-04T07:13:47.641Z,18.62
2018-05-04T07:16:14.284Z,18.83
2018-05-04T07:18:45.594Z,19.12
2018-05-04T07:21:12.537Z,17.83
2018-05-04T07:23:39.206Z,18.74
2018-05-04T07:26:05.894Z,18.45
2018-05-04T07:28:36.754Z,18.99
2018-05-04T07:31:03.400Z,19.78
2018-05-04T07:33:30.111Z,19.58
2018-05-04T07:35:56.900Z,18.96
2018-05-04T07:38:27.118Z,19.61
2018-05-04T07:40:53.744Z,19.33
2018-05-04T07:43:20.414Z,20.01
2018-05-04T07:45:47.006Z,20.84
2018-05-04T07:48:24.152Z,19.96
2018-05-04T07:50:50.754Z,19.84
2018-05-04T07:53:17.419Z,19.84
2018-05-04T07:55:44.158Z,20.31
2018-05-04T07:58:24.780Z,20.61
2018-05-04T08:00:51.485Z,20.21
2018-05-04T08:03:18.077Z,19.67
2018-05-04T08:05:44.729Z,20.66
2018-05-04T08:08:12.634Z,20.76
2018-05-04T08:10:39.362Z,20.80
2018-05-04T08:13:06.069Z,20.74
2018-05-04T08:15:32.743Z,20.91
2018-05-04T08:18:02.527Z,20.83
2018-05-04T08:20:29.957Z,22.08
2018-05-04T08:22:56.936Z,21.25
2018-05-04T08:25:23.677Z,22.10
2018-05-04T08:27:53.881Z,22.02
2018-05-04T08:30:20.482Z,22.66
2018-05-04T08:32:47.069Z,22.59
2018-05-04T08:35:13.839Z,22.76
2018-05-04T08:37:43.625Z,22.51
2018-05-04T08:40:10.647Z,22.51
2018-05-04T08:42:37.309Z,22.74
2018-05-04T08:45:09.906Z,22.67
2018-05-04T08:47:47.607Z,23.09
2018-05-04T08:50:14.204Z,24.23
2018-05-04T08:52:41.960Z,24.25
2018-05-04T08:55:08.756Z,24.58
2018-05-04T08:57:35.516Z,24.93
2018-05-04T09:00:02.138Z,23.72
2018-05-04T09:02:28.800Z,24.21
2018-05-04T09:04:55.425Z,24.57
2018-05-04T09:07:22.075Z,24.73
2018-05-04T09:09:48.705Z,23.07
2018-05-04T09:12:15.441Z,24.50
2018-05-04T09:14:42.135Z,23.36
2018-05-04T09:17:08.842Z,23.84
2018-05-04T09:19:35.572Z,24.26
2018-05-04T09:22:02.216Z,25.07
2018-05-04T09:24:28.853Z,23.75
2018-05-04T09:26:55.634Z,24.49
2018-05-04T09:29:23.643Z,24.26
2018-05-04T09:31:51.094Z,25.54
2018-05-04T09:34:18.075Z,25.22
2018-05-04T09:36:44.708Z,25.51
2018-05-04T09:39:14.538Z,24.80
2018-05-04T09:41:41.093Z,25.80
2018-05-04T09:44:07.797Z,25.43
2018-05-04T09:46:34.404Z,24.18
2018-05-04T09:49:01.139Z,25.21
2018-05-04T09:51:27.885Z,24.06
2018-05-04T09:53:54.529Z,24.22
2018-05-04T09:56:21.313Z,25.43
2018-05-04T09:58:59.013Z,25.42
2018-05-04T10:01:25.970Z,25.22
2018-05-04T10:03:52.897Z,23.96
2018-05-04T10:06:19.641Z,24.63
2018-05-04T10:08:50.337Z,25.31
2018-05-04T10:11:16.987Z,25.96
2018-05-04T10:13:43.753Z,25.22
2018-05-04T10:16:10.606Z,26.31
2018-05-04T10:18:37.482Z,26.11
2018-05-04T10:21:04.165Z,26.88
2018-05-04T10:23:31.289Z,27.82
2018-05-04T10:25:58.370Z,25.62
2018-05-04T10:28:26.154Z,25.80
2018-05-04T10:30:52.837Z,26.11
2018-05-04T10:33:19.777Z,26.79
2018-05-04T10:35:46.835Z,27.26
2018-05-04T10:38:16.878Z,28.04
2018-05-04T10:40:43.480Z,27.36
2018-05-04T10:43:10.233Z,27.49
2018-05-04T10:45:36.786Z,28.02
2018-05-04T10:48:06.684Z,26.83
2018-05-04T10:50:33.409Z,28.07
2018-05-04T10:53:00.283Z,28.48
2018-05-04T10:55:32.702Z,27.78
2018-05-04T10:58:02.781Z,26.99
2018-05-04T11:00:29.831Z,26.11
2018-05-04T11:02:56.497Z,27.69
2018-05-04T11:05:23.243Z,28.01
2018-05-04T11:07:49.729Z,28.05
2018-05-04T11:10:16.345Z,27.65
2018-05-04T11:12:43.196Z,27.83
2018-05-04T11:15:10.381Z,26.01
2018-05-04T11:17:44.811Z,27.63
2018-05-04T11:20:12.023Z,26.83
2018-05-04T11:22:38.671Z,27.62
2018-05-04T11:25:05.330Z,26.89
2018-05-04T11:27:42.284Z,27.86
2018-05-04T11:30:08.934Z,26.93
2018-05-04T11:32:35.667Z,28.25
2018-05-04T11:35:02.319Z,27.30
2018-05-04T11:37:33.908Z,26.29
2018-05-04T11:40:00.559Z,26.59
2018-05-04T11:42:27.189Z,26.37
2018-05-04T11:44:54.420Z,26.82
2018-05-04T11:47:25.011Z,26.88
2018-05-04T11:49:51.511Z,26.01
2018-05-04T11:52:18.185Z,26.15
2018-05-04T11:54:44.754Z,26.45
2018-05-04T11:57:15.609Z,26.47
2018-05-04T11:59:42.352Z,26.83
2018-05-04T12:02:08.930Z,27.05
2018-05-04T12:04:35.573Z,27.78
2018-05-04T12:07:02.243Z,27.26
2018-05-04T12:09:29.045Z,28.05
2018-05-04T12:11:55.597Z,26.71
2018-05-04T12:14:22.334Z,25.99
2018-05-04T12:16:49.750Z,26.52
2018-05-04T12:19:16.420Z,27.18
2018-05-04T12:21:42.901Z,26.94
2018-05-04T12:24:09.713Z,27.14
2018-05-04T12:26:36.702Z,27.49
2018-05-04T12:29:09.151Z,27.97
2018-05-04T12:31:36.445Z,27.08
2018-05-04T12:34:03.073Z,26.92
2018-05-04T12:36:29.702Z,27.32
2018-05-04T12:39:00.386Z,27.53
2018-05-04T12:41:26.990Z,26.70
2018-05-04T12:43:53.655Z,27.53
2018-05-04T12:46:20.704Z,27.38
2018-05-04T12:48:47.658Z,27.59
2018-05-04T12:51:14.179Z,28.29
2018-05-04T12:53:40.906Z,28.29
2018-05-04T12:56:07.725Z,27.30
2018-05-04T12:58:38.413Z,28.13
2018-05-04T13:01:05.147Z,28.06
2018-05-04T13:03:31.661Z,27.86
2018-05-04T13:05:58.343Z,27.82
2018-05-04T13:08:35.505Z,28.53
2018-05-04T13:11:02.082Z,27.35
2018-05-04T13:13:28.699Z,28.96
2018-05-04T13:15:55.431Z,29.12
2018-05-04T13:18:34.739Z,27.25
2018-05-04T13:21:01.325Z,28.08
2018-05-04T13:23:27.976Z,29.56
2018-05-04T13:25:54.576Z,29.66
2018-05-04T13:28:25.542Z,28.40
2018-05-04T13:30:52.180Z,28.41
2018-05-04T13:33:18.705Z,28.78
2018-05-04T13:35:45.737Z,28.65
2018-05-04T13:38:15.953Z,28.48
2018-05-04T13:40:42.646Z,28.11
2018-05-04T13:43:09.345Z,28.58
2018-05-04T13:45:36.120Z,28.66
2018-05-04T13:48:02.985Z,29.27
2018-05-04T13:50:29.690Z,29.01
2018-05-04T13:52:56.657Z,30.54
2018-05-04T13:55:23.267Z,30.37
2018-05-04T13:58:00.246Z,28.19
2018-05-04T14:00:26.926Z,28.94
2018-05-04T14:02:53.609Z,28.68
2018-05-04T14:05:21.025Z,28.67
2018-05-04T14:07:53.586Z,28.19
2018-05-04T14:10:20.125Z,27.72
2018-05-04T14:12:46.806Z,28.52
2018-05-04T14:15:13.692Z,29.31
2018-05-04T14:17:46.617Z,28.66
2018-05-04T14:20:13.334Z,27.69
2018-05-04T14:22:39.927Z,28.78
2018-05-04T14:25:06.508Z,28.93
2018-05-04T14:27:39.737Z,28.03
2018-05-04T14:30:06.846Z,27.98
2018-05-04T14:32:33.581Z,29.16
2018-05-04T14:35:00.228Z,28.55
2018-05-04T14:37:28.004Z,28.88
2018-05-04T14:39:54.660Z,30.72
2018-05-04T14:42:21.352Z,29.57
2018-05-04T14:44:48.067Z,30.82
2018-05-04T14:47:15.068Z,31.09
2018-05-04T14:49:41.820Z,31.64
2018-05-04T14:52:08.522Z,30.60
2018-05-04T14:54:35.248Z,30.22
2018-05-04T14:57:05.726Z,30.85
2018-05-04T14:59:32.614Z,28.12
2018-05-04T15:01:59.320Z,30.23
2018-05-04T15:04:26.766Z,30.12
2018-05-04T15:06:59.126Z,30.05
2018-05-04T15:09:25.706Z,30.50
2018-05-04T15:11:52.464Z,29.24
2018-05-04T15:14:18.957Z,29.86
2018-05-04T15:16:49.096Z,29.65
2018-05-04T15:19:16.111Z,30.46
2018-05-04T15:21:42.809Z,30.75
2018-05-04T15:24:09.523Z,30.06
2018-05-04T15:26:39.485Z,30.62
2018-05-04T15:29:07.206Z,30.86
2018-05-04T15:31:33.797Z,30.79
2018-05-04T15:34:00.334Z,32.03
2018-05-04T15:36:26.911Z,30.54
2018-05-04T15:38:53.480Z,33.75
2018-05-04T15:41:20.052Z,33.96
2018-05-04T15:43:46.672Z,29.39
2018-05-04T15:46:13.314Z,29.84
2018-05-04T15:48:49.222Z,33.58
2018-05-04T15:51:21.990Z,32.18
2018-05-04T15:53:48.697Z,29.24
2018-05-04T15:56:15.397Z,31.16
2018-05-04T15:58:45.134Z,28.13
2018-05-04T16:01:11.807Z,31.60
2018-05-04T16:03:38.511Z,29.08
2018-05-04T16:06:05.693Z,28.23
2018-05-04T16:08:32.404Z,27.56
2018-05-04T16:11:00.006Z,27.81
2018-05-04T16:13:26.604Z,27.45
2018-05-04T16:15:53.180Z,27.35
2018-05-04T16:18:21.417Z,27.32
2018-05-04T16:20:48.086Z,25.30
2018-05-04T16:23:14.750Z,25.72
2018-05-04T16:25:41.399Z,23.81
2018-05-04T16:28:18.720Z,23.25
2018-05-04T16:30:45.474Z,23.56
2018-05-04T16:33:12.104Z,23.94
2018-05-04T16:35:38.727Z,23.55
2018-05-04T16:38:09.362Z,23.26
2018-05-04T16:40:35.957Z,22.32
2018-05-04T16:43:02.973Z,22.20
2018-05-04T16:45:29.699Z,22.16
2018-05-04T16:48:05.582Z,21.71
2018-05-04T16:50:32.387Z,22.02
2018-05-04T16:52:58.979Z,21.60
2018-05-04T16:55:25.766Z,21.57
2018-05-04T16:58:02.834Z,21.54
2018-05-04T17:00:30.073Z,21.80
2018-05-04T17:02:56.708Z,21.99
2018-05-04T17:05:23.274Z,21.80
2018-05-04T17:07:50.916Z,21.28
2018-05-04T17:10:17.534Z,21.16
2018-05-04T17:12:44.685Z,21.38
2018-05-04T17:15:11.660Z,20.99
2018-05-04T17:17:41.565Z,21.02
2018-05-04T17:20:08.132Z,20.97
2018-05-04T17:22:34.734Z,20.39
2018-05-04T17:25:01.362Z,20.45
2018-05-04T17:27:34.285Z,20.61
2018-05-04T17:30:01.025Z,20.08
2018-05-04T17:32:27.632Z,20.27
2018-05-04T17:34:54.228Z,20.56
2018-05-04T17:37:24.676Z,20.63
2018-05-04T17:39:51.329Z,20.77
2018-05-04T17:42:18.897Z,20.43
2018-05-04T17:44:45.439Z,20.42
2018-05-04T17:47:15.820Z,20.43
2018-05-04T17:49:42.471Z,20.26
2018-05-04T17:52:09.217Z,20.30
2018-05-04T17:54:35.930Z,20.23
2018-05-04T17:57:12.820Z,20.10
2018-05-04T17:59:39.502Z,19.68
2018-05-04T18:02:06.273Z,19.64
2018-05-04T18:04:32.968Z,19.78
2018-05-04T18:07:03.562Z,19.91
2018-05-04T18:09:30.358Z,19.28
2018-05-04T18:11:56.863Z,19.63
2018-05-04T18:14:23.998Z,19.91
2018-05-04T18:16:53.976Z,20.08
2018-05-04T18:19:20.445Z,20.85
2018-05-04T18:21:47.098Z,21.27
2018-05-04T18:24:13.730Z,21.29
2018-05-04T18:26:44.370Z,21.27
2018-05-04T18:29:11.922Z,20.52
2018-05-04T18:31:38.491Z,20.46
2018-05-04T18:34:05.007Z,19.22
2018-05-04T18:36:31.851Z,19.28
2018-05-04T18:38:58.491Z,19.38
2018-05-04T18:41:25.127Z,19.60
2018-05-04T18:43:51.774Z,19.00
2018-05-04T18:46:24.438Z,19.20
2018-05-04T18:48:51.157Z,19.08
2018-05-04T18:51:17.796Z,18.92
2018-05-04T18:53:44.422Z,18.89
2018-05-04T18:56:11.283Z,18.95
2018-05-04T18:58:37.986Z,18.47
2018-05-04T19:01:04.737Z,18.84
2018-05-04T19:03:31.309Z,18.97
2018-05-04T19:06:01.581Z,18.71
2018-05-04T19:08:28.972Z,18.10
2018-05-04T19:10:56.255Z,18.30
2018-05-04T19:13:22.968Z,18.36
2018-05-04T19:15:49.618Z,18.27
2018-05-04T19:18:16.315Z,18.19
2018-05-04T19:20:42.943Z,18.12
2018-05-04T19:23:09.613Z,18.09
2018-05-04T19:25:36.328Z,18.25
2018-05-04T19:28:09.238Z,18.36
2018-05-04T19:30:35.861Z,18.16
2018-05-04T19:33:02.860Z,18.27
2018-05-04T19:35:29.631Z,17.18
2018-05-04T19:37:56.237Z,17.97
2018-05-04T19:40:22.890Z,18.49
2018-05-04T19:42:52.320Z,18.57
2018-05-04T19:45:19.624Z,18.71
2018-05-04T19:47:49.667Z,18.71
2018-05-04T19:50:16.241Z,18.63
2018-05-04T19:52:42.945Z,18.42
2018-05-04T19:55:10.957Z,18.54
2018-05-04T19:57:39.529Z,18.29
2018-05-04T20:00:06.207Z,18.53
2018-05-04T20:02:32.912Z,18.70
2018-05-04T20:04:59.637Z,18.33
2018-05-04T20:07:26.482Z,18.54
2018-05-04T20:09:53.173Z,18.59
2018-05-04T20:12:19.725Z,18.30
2018-05-04T20:14:46.387Z,17.83
2018-05-04T20:17:16.086Z,18.00
2018-05-04T20:19:42.730Z,18.10
2018-05-04T20:22:09.438Z,17.89
2018-05-04T20:24:36.099Z,17.39
2018-05-04T20:27:04.134Z,17.26
2018-05-04T20:29:30.934Z,16.89
2018-05-04T20:31:57.591Z,17.62
2018-05-04T20:34:24.150Z,17.58
2018-05-04T20:36:55.982Z,17.10
2018-05-04T20:39:22.749Z,17.30
2018-05-04T20:41:49.426Z,17.19
2018-05-04T20:44:17.621Z,16.85
2018-05-04T20:46:47.967Z,17.34
2018-05-04T20:49:14.682Z,17.03
2018-05-04T20:51:41.351Z,16.82
2018-05-04T20:54:08.076Z,16.96
2018-05-04T20:56:35.278Z,16.71
2018-05-04T20:59:02.083Z,16.76
2018-05-04T21:01:28.626Z,16.77
2018-05-04T21:03:55.260Z,16.88
2018-05-04T21:06:23.208Z,17.00
2018-05-04T21:08:49.825Z,16.86
2018-05-04T21:11:16.318Z,15.90
2018-05-04T21:13:43.266Z,16.37
2018-05-04T21:16:09.958Z,16.46
2018-05-04T21:18:36.600Z,16.73
2018-05-04T21:21:03.338Z,16.91
2018-05-04T21:23:30.029Z,16.67
2018-05-04T21:25:56.916Z,15.96
2018-05-04T21:28:23.614Z,16.58
2018-05-04T21:30:50.721Z,16.85
2018-05-04T21:33:17.350Z,15.95
2018-05-04T21:35:49.775Z,16.56
2018-05-04T21:38:16.816Z,16.68
2018-05-04T21:40:43.526Z,16.71
2018-05-04T21:43:10.920Z,16.55
2018-05-04T21:45:37.627Z,16.76
2018-05-04T21:48:04.263Z,16.52
2018-05-04T21:50:30.949Z,16.52
2018-05-04T21:52:57.629Z,15.82
2018-05-04T21:55:24.180Z,15.64
2018-05-04T21:57:50.899Z,15.95
2018-05-04T22:00:17.530Z,16.03
2018-05-04T22:02:44.252Z,16.22
2018-05-04T22:05:10.931Z,16.06
2018-05-04T22:07:42.748Z,16.04
2018-05-04T22:10:09.421Z,16.19
2018-05-04T22:12:36.046Z,16.29
2018-05-04T22:15:02.706Z,16.48
2018-05-04T22:17:32.561Z,16.14
2018-05-04T22:19:59.237Z,15.96
2018-05-04T22:22:26.189Z,15.97
2018-05-04T22:24:53.141Z,15.94
2018-05-04T22:27:20.844Z,16.00
2018-05-04T22:29:47.331Z,16.14
2018-05-04T22:32:13.986Z,16.41
2018-05-04T22:34:40.619Z,16.70
2018-05-04T22:37:13.281Z,16.97
2018-05-04T22:39:39.962Z,17.04
2018-05-04T22:42:07.893Z,16.14
2018-05-04T22:44:34.605Z,16.00
2018-05-04T22:47:02.184Z,15.67
2018-05-04T22:49:28.861Z,15.84
2018-05-04T22:51:55.570Z,15.89
2018-05-04T22:54:22.206Z,16.02
2018-05-04T22:56:53.145Z,15.96
2018-05-04T22:59:19.815Z,15.88
2018-05-04T23:01:46.529Z,15.95
2018-05-04T23:04:13.164Z,15.82
2018-05-04T23:06:40.924Z,15.36
2018-05-04T23:09:08.160Z,15.14
2018-05-04T23:11:34.745Z,15.03
2018-05-04T23:14:01.990Z,15.22
2018-05-04T23:16:29.604Z,15.60
2018-05-04T23:18:56.236Z,15.90
2018-05-04T23:21:22.956Z,16.04
2018-05-04T23:23:49.580Z,16.10
2018-05-04T23:26:22.093Z,16.02
2018-05-04T23:28:48.733Z,16.04
2018-05-04T23:31:15.386Z,15.91
2018-05-04T23:33:42.046Z,16.02
2018-05-04T23:36:12.089Z,15.81
2018-05-04T23:38:38.617Z,15.76
2018-05-04T23:41:05.358Z,15.68
2018-05-04T23:43:32.036Z,15.64
2018-05-04T23:46:02.673Z,15.88
2018-05-04T23:48:29.298Z,15.74
2018-05-04T23:50:55.932Z,15.42
2018-05-04T23:53:22.569Z,15.21
2018-05-04T23:55:53.154Z,15.19
2018-05-04T23:58:19.843Z,15.04
